sensor_id;sensor_type;location;lat;lon;timestamp;P1;durP1;ratioP1;P2;durP2;ratioP2
6614;SDS011;3343;42.896;23.912;2022-09-16T00:00:54;2.87;;;1.77;;
6614;SDS011;3343;42.896;23.912;2022-09-16T00:03:21;2.70;;;1.73;;
6614;SDS011;3343;42.896;23.912;2022-09-16T00:05:49;1.97;;;1.40;;
6614;SDS011;3343;42.896;23.912;2022-09-16T00:08:17;3.43;;;1.63;;
6614;SDS011;3343;42.896;23.912;2022-09-16T00:10:45;8.30;;;1.90;;
6614;SDS011;3343;42.896;23.912;2022-09-16T00:13:14;5.97;;;2.10;;
6614;SDS011;3343;42.896;23.912;2022-09-16T00:15:42;2.47;;;1.90;;
6614;SDS011;3343;42.896;23.912;2022-09-16T00:18:09;2.63;;;1.60;;
6614;SDS011;3343;42.896;23.912;2022-09-16T00:20:41;4.03;;;1.93;;
6614;SDS011;3343;42.896;23.912;2022-09-16T00:23:09;5.40;;;1.70;;
6614;SDS011;3343;42.896;23.912;2022-09-16T00:25:35;4.20;;;2.00;;
6614;SDS011;3343;42.896;23.912;2022-09-16T00:28:02;7.93;;;1.80;;
6614;SDS011;3343;42.896;23.912;2022-09-16T00:30:31;2.43;;;1.80;;
6614;SDS011;3343;42.896;23.912;2022-09-16T00:32:58;3.10;;;1.33;;
6614;SDS011;3343;42.896;23.912;2022-09-16T00:35:25;3.07;;;1.80;;
6614;SDS011;3343;42.896;23.912;2022-09-16T00:37:52;3.07;;;1.93;;
6614;SDS011;3343;42.896;23.912;2022-09-16T00:40:18;4.70;;;1.50;;
6614;SDS011;3343;42.896;23.912;2022-09-16T00:42:45;2.37;;;1.87;;
6614;SDS011;3343;42.896;23.912;2022-09-16T00:45:13;3.97;;;2.10;;
6614;SDS011;3343;42.896;23.912;2022-09-16T00:47:44;2.73;;;1.70;;
6614;SDS011;3343;42.896;23.912;2022-09-16T00:50:16;3.50;;;1.87;;
6614;SDS011;3343;42.896;23.912;2022-09-16T00:52:48;4.10;;;1.60;;
6614;SDS011;3343;42.896;23.912;2022-09-16T00:55:17;3.70;;;1.57;;
6614;SDS011;3343;42.896;23.912;2022-09-16T00:57:52;3.10;;;1.70;;
6614;SDS011;3343;42.896;23.912;2022-09-16T01:00:22;5.73;;;1.87;;
6614;SDS011;3343;42.896;23.912;2022-09-16T01:02:50;4.40;;;2.03;;
6614;SDS011;3343;42.896;23.912;2022-09-16T01:05:18;2.10;;;1.50;;
6614;SDS011;3343;42.896;23.912;2022-09-16T01:07:47;4.27;;;1.90;;
6614;SDS011;3343;42.896;23.912;2022-09-16T01:10:17;4.13;;;2.23;;
6614;SDS011;3343;42.896;23.912;2022-09-16T01:12:48;5.17;;;1.60;;
6614;SDS011;3343;42.896;23.912;2022-09-16T01:15:18;4.00;;;2.00;;
6614;SDS011;3343;42.896;23.912;2022-09-16T01:17:54;1.63;;;1.50;;
6614;SDS011;3343;42.896;23.912;2022-09-16T01:23:49;6.07;;;1.80;;
6614;SDS011;3343;42.896;23.912;2022-09-16T01:26:48;3.57;;;1.83;;
6614;SDS011;3343;42.896;23.912;2022-09-16T01:29:35;2.17;;;1.67;;
6614;SDS011;3343;42.896;23.912;2022-09-16T01:32:15;3.27;;;1.77;;
6614;SDS011;3343;42.896;23.912;2022-09-16T01:34:49;3.47;;;1.63;;
6614;SDS011;3343;42.896;23.912;2022-09-16T01:37:24;3.13;;;1.53;;
6614;SDS011;3343;42.896;23.912;2022-09-16T01:40:01;2.83;;;1.70;;
6614;SDS011;3343;42.896;23.912;2022-09-16T01:42:34;3.93;;;1.70;;
6614;SDS011;3343;42.896;23.912;2022-09-16T01:45:07;2.70;;;1.73;;
6614;SDS011;3343;42.896;23.912;2022-09-16T01:47:42;3.10;;;1.43;;
6614;SDS011;3343;42.896;23.912;2022-09-16T01:50:21;2.27;;;1.50;;
6614;SDS011;3343;42.896;23.912;2022-09-16T01:52:53;1.90;;;1.40;;
6614;SDS011;3343;42.896;23.912;2022-09-16T01:55:27;3.10;;;1.40;;
6614;SDS011;3343;42.896;23.912;2022-09-16T01:57:58;2.15;;;1.50;;
6614;SDS011;3343;42.896;23.912;2022-09-16T02:00:28;1.97;;;1.53;;
6614;SDS011;3343;42.896;23.912;2022-09-16T02:02:59;4.87;;;1.53;;
6614;SDS011;3343;42.896;23.912;2022-09-16T02:05:31;2.67;;;1.83;;
6614;SDS011;3343;42.896;23.912;2022-09-16T02:08:01;3.10;;;1.77;;
6614;SDS011;3343;42.896;23.912;2022-09-16T02:10:33;3.77;;;1.70;;
6614;SDS011;3343;42.896;23.912;2022-09-16T02:13:06;5.22;;;2.35;;
6614;SDS011;3343;42.896;23.912;2022-09-16T02:15:38;6.57;;;1.70;;
6614;SDS011;3343;42.896;23.912;2022-09-16T02:18:10;2.08;;;1.40;;
6614;SDS011;3343;42.896;23.912;2022-09-16T02:20:41;2.58;;;1.65;;
6614;SDS011;3343;42.896;23.912;2022-09-16T02:23:13;2.75;;;1.30;;
6614;SDS011;3343;42.896;23.912;2022-09-16T02:25:44;4.10;;;2.42;;
6614;SDS011;3343;42.896;23.912;2022-09-16T02:28:14;3.63;;;1.70;;
6614;SDS011;3343;42.896;23.912;2022-09-16T02:30:46;3.17;;;1.80;;
6614;SDS011;3343;42.896;23.912;2022-09-16T02:33:19;4.53;;;1.90;;
6614;SDS011;3343;42.896;23.912;2022-09-16T02:35:51;6.40;;;2.17;;
6614;SDS011;3343;42.896;23.912;2022-09-16T02:38:22;4.33;;;2.00;;
6614;SDS011;3343;42.896;23.912;2022-09-16T02:40:53;2.37;;;1.73;;
6614;SDS011;3343;42.896;23.912;2022-09-16T02:43:22;4.73;;;1.60;;
6614;SDS011;3343;42.896;23.912;2022-09-16T02:45:52;3.53;;;1.50;;
6614;SDS011;3343;42.896;23.912;2022-09-16T02:48:27;4.53;;;1.63;;
6614;SDS011;3343;42.896;23.912;2022-09-16T02:51:04;2.73;;;1.87;;
6614;SDS011;3343;42.896;23.912;2022-09-16T02:53:43;5.97;;;2.42;;
6614;SDS011;3343;42.896;23.912;2022-09-16T02:56:14;7.03;;;1.63;;
6614;SDS011;3343;42.896;23.912;2022-09-16T02:58:50;2.77;;;1.70;;
6614;SDS011;3343;42.896;23.912;2022-09-16T03:01:17;2.50;;;2.30;;
6614;SDS011;3343;42.896;23.912;2022-09-16T03:03:46;4.63;;;2.25;;
6614;SDS011;3343;42.896;23.912;2022-09-16T03:06:15;6.77;;;2.20;;
6614;SDS011;3343;42.896;23.912;2022-09-16T03:08:49;4.57;;;2.30;;
6614;SDS011;3343;42.896;23.912;2022-09-16T03:11:20;1.80;;;1.47;;
6614;SDS011;3343;42.896;23.912;2022-09-16T03:14:00;3.77;;;1.63;;
6614;SDS011;3343;42.896;23.912;2022-09-16T03:16:40;4.77;;;2.00;;
6614;SDS011;3343;42.896;23.912;2022-09-16T03:19:18;10.20;;;1.70;;
6614;SDS011;3343;42.896;23.912;2022-09-16T03:21:52;3.07;;;1.90;;
6614;SDS011;3343;42.896;23.912;2022-09-16T03:24:26;3.70;;;1.60;;
6614;SDS011;3343;42.896;23.912;2022-09-16T03:27:03;3.60;;;2.03;;
6614;SDS011;3343;42.896;23.912;2022-09-16T03:29:36;1.50;;;1.30;;
6614;SDS011;3343;42.896;23.912;2022-09-16T03:32:09;2.27;;;1.60;;
6614;SDS011;3343;42.896;23.912;2022-09-16T03:34:48;3.45;;;1.65;;
6614;SDS011;3343;42.896;23.912;2022-09-16T03:37:18;7.13;;;1.90;;
6614;SDS011;3343;42.896;23.912;2022-09-16T03:39:48;4.73;;;2.30;;
6614;SDS011;3343;42.896;23.912;2022-09-16T03:42:18;6.17;;;1.97;;
6614;SDS011;3343;42.896;23.912;2022-09-16T03:44:45;2.17;;;1.40;;
6614;SDS011;3343;42.896;23.912;2022-09-16T03:47:12;3.97;;;1.73;;
6614;SDS011;3343;42.896;23.912;2022-09-16T03:49:40;2.50;;;1.70;;
6614;SDS011;3343;42.896;23.912;2022-09-16T03:52:09;1.97;;;1.70;;
6614;SDS011;3343;42.896;23.912;2022-09-16T03:54:36;2.57;;;1.30;;
6614;SDS011;3343;42.896;23.912;2022-09-16T03:57:04;2.13;;;1.50;;
6614;SDS011;3343;42.896;23.912;2022-09-16T03:59:31;4.50;;;1.67;;
6614;SDS011;3343;42.896;23.912;2022-09-16T04:01:58;4.27;;;1.77;;
6614;SDS011;3343;42.896;23.912;2022-09-16T04:04:25;6.77;;;1.90;;
6614;SDS011;3343;42.896;23.912;2022-09-16T04:06:52;3.90;;;1.77;;
6614;SDS011;3343;42.896;23.912;2022-09-16T04:09:20;5.70;;;1.67;;
6614;SDS011;3343;42.896;23.912;2022-09-16T04:11:47;3.40;;;1.73;;
6614;SDS011;3343;42.896;23.912;2022-09-16T04:14:14;4.10;;;1.60;;
6614;SDS011;3343;42.896;23.912;2022-09-16T04:16:41;3.37;;;1.50;;
6614;SDS011;3343;42.896;23.912;2022-09-16T04:19:08;2.10;;;1.60;;
6614;SDS011;3343;42.896;23.912;2022-09-16T04:21:35;3.08;;;1.65;;
6614;SDS011;3343;42.896;23.912;2022-09-16T04:24:02;3.03;;;1.63;;
6614;SDS011;3343;42.896;23.912;2022-09-16T04:26:31;3.95;;;1.55;;
6614;SDS011;3343;42.896;23.912;2022-09-16T04:28:58;5.30;;;1.95;;
6614;SDS011;3343;42.896;23.912;2022-09-16T04:31:25;2.72;;;1.63;;
6614;SDS011;3343;42.896;23.912;2022-09-16T04:33:51;4.05;;;2.00;;
6614;SDS011;3343;42.896;23.912;2022-09-16T04:36:19;4.28;;;1.75;;
6614;SDS011;3343;42.896;23.912;2022-09-16T04:38:46;2.58;;;1.70;;
6614;SDS011;3343;42.896;23.912;2022-09-16T04:41:15;4.70;;;1.70;;
6614;SDS011;3343;42.896;23.912;2022-09-16T04:43:44;2.88;;;1.73;;
6614;SDS011;3343;42.896;23.912;2022-09-16T04:46:12;3.17;;;1.77;;
6614;SDS011;3343;42.896;23.912;2022-09-16T04:48:39;3.20;;;2.03;;
6614;SDS011;3343;42.896;23.912;2022-09-16T04:51:07;4.47;;;2.47;;
6614;SDS011;3343;42.896;23.912;2022-09-16T04:53:36;6.03;;;1.70;;
6614;SDS011;3343;42.896;23.912;2022-09-16T04:56:05;4.00;;;1.70;;
6614;SDS011;3343;42.896;23.912;2022-09-16T04:58:33;4.20;;;2.00;;
6614;SDS011;3343;42.896;23.912;2022-09-16T05:01:06;4.72;;;2.65;;
6614;SDS011;3343;42.896;23.912;2022-09-16T05:03:37;12.38;;;2.50;;
6614;SDS011;3343;42.896;23.912;2022-09-16T05:06:05;5.65;;;1.77;;
6614;SDS011;3343;42.896;23.912;2022-09-16T05:08:33;10.55;;;1.85;;
6614;SDS011;3343;42.896;23.912;2022-09-16T05:11:04;2.70;;;1.60;;
6614;SDS011;3343;42.896;23.912;2022-09-16T05:13:33;4.03;;;2.00;;
6614;SDS011;3343;42.896;23.912;2022-09-16T05:16:00;10.07;;;2.72;;
6614;SDS011;3343;42.896;23.912;2022-09-16T05:18:30;7.47;;;2.08;;
6614;SDS011;3343;42.896;23.912;2022-09-16T05:20:58;8.07;;;1.75;;
6614;SDS011;3343;42.896;23.912;2022-09-16T05:23:25;4.20;;;1.95;;
6614;SDS011;3343;42.896;23.912;2022-09-16T05:25:53;6.10;;;1.80;;
6614;SDS011;3343;42.896;23.912;2022-09-16T05:28:19;4.70;;;2.15;;
6614;SDS011;3343;42.896;23.912;2022-09-16T05:30:46;5.13;;;1.65;;
6614;SDS011;3343;42.896;23.912;2022-09-16T05:33:13;6.05;;;2.97;;
6614;SDS011;3343;42.896;23.912;2022-09-16T05:35:43;4.88;;;2.03;;
6614;SDS011;3343;42.896;23.912;2022-09-16T05:38:10;2.95;;;1.80;;
6614;SDS011;3343;42.896;23.912;2022-09-16T05:40:37;3.95;;;1.48;;
6614;SDS011;3343;42.896;23.912;2022-09-16T05:43:04;7.35;;;1.90;;
6614;SDS011;3343;42.896;23.912;2022-09-16T05:45:31;6.93;;;1.92;;
6614;SDS011;3343;42.896;23.912;2022-09-16T05:47:58;5.45;;;1.85;;
6614;SDS011;3343;42.896;23.912;2022-09-16T05:50:25;6.85;;;2.05;;
6614;SDS011;3343;42.896;23.912;2022-09-16T05:52:54;4.47;;;1.55;;
6614;SDS011;3343;42.896;23.912;2022-09-16T05:55:20;3.92;;;1.50;;
6614;SDS011;3343;42.896;23.912;2022-09-16T05:57:47;2.35;;;1.42;;
6614;SDS011;3343;42.896;23.912;2022-09-16T06:00:14;2.30;;;1.70;;
6614;SDS011;3343;42.896;23.912;2022-09-16T06:02:41;3.08;;;2.00;;
6614;SDS011;3343;42.896;23.912;2022-09-16T06:05:08;5.55;;;1.92;;
6614;SDS011;3343;42.896;23.912;2022-09-16T06:07:35;3.53;;;1.70;;
6614;SDS011;3343;42.896;23.912;2022-09-16T06:10:03;5.13;;;1.58;;
6614;SDS011;3343;42.896;23.912;2022-09-16T06:12:31;5.88;;;1.92;;
6614;SDS011;3343;42.896;23.912;2022-09-16T06:14:58;8.68;;;1.70;;
6614;SDS011;3343;42.896;23.912;2022-09-16T06:17:25;6.65;;;2.03;;
6614;SDS011;3343;42.896;23.912;2022-09-16T06:19:51;4.70;;;1.65;;
6614;SDS011;3343;42.896;23.912;2022-09-16T06:22:18;4.93;;;2.00;;
6614;SDS011;3343;42.896;23.912;2022-09-16T06:24:45;4.78;;;1.80;;
6614;SDS011;3343;42.896;23.912;2022-09-16T06:27:13;2.92;;;1.33;;
6614;SDS011;3343;42.896;23.912;2022-09-16T06:29:40;3.55;;;1.92;;
6614;SDS011;3343;42.896;23.912;2022-09-16T06:32:07;3.80;;;1.45;;
6614;SDS011;3343;42.896;23.912;2022-09-16T06:34:34;5.88;;;1.80;;
6614;SDS011;3343;42.896;23.912;2022-09-16T06:37:01;2.20;;;1.20;;
6614;SDS011;3343;42.896;23.912;2022-09-16T06:39:28;3.08;;;1.55;;
6614;SDS011;3343;42.896;23.912;2022-09-16T06:41:54;5.60;;;1.77;;
6614;SDS011;3343;42.896;23.912;2022-09-16T06:44:23;3.78;;;1.60;;
6614;SDS011;3343;42.896;23.912;2022-09-16T06:46:49;4.07;;;1.80;;
6614;SDS011;3343;42.896;23.912;2022-09-16T06:49:17;2.80;;;1.67;;
6614;SDS011;3343;42.896;23.912;2022-09-16T06:51:44;2.38;;;1.50;;
6614;SDS011;3343;42.896;23.912;2022-09-16T06:54:13;4.18;;;2.30;;
6614;SDS011;3343;42.896;23.912;2022-09-16T06:56:40;3.10;;;1.85;;
6614;SDS011;3343;42.896;23.912;2022-09-16T06:59:07;4.78;;;1.67;;
6614;SDS011;3343;42.896;23.912;2022-09-16T07:01:36;2.40;;;1.35;;
6614;SDS011;3343;42.896;23.912;2022-09-16T07:04:04;1.63;;;1.13;;
6614;SDS011;3343;42.896;23.912;2022-09-16T07:06:34;3.92;;;1.48;;
6614;SDS011;3343;42.896;23.912;2022-09-16T07:09:01;4.32;;;1.73;;
6614;SDS011;3343;42.896;23.912;2022-09-16T07:11:29;2.40;;;1.35;;
6614;SDS011;3343;42.896;23.912;2022-09-16T07:13:55;3.50;;;1.60;;
6614;SDS011;3343;42.896;23.912;2022-09-16T07:16:24;3.13;;;1.45;;
6614;SDS011;3343;42.896;23.912;2022-09-16T07:18:53;1.98;;;1.42;;
6614;SDS011;3343;42.896;23.912;2022-09-16T07:21:22;1.95;;;1.27;;
6614;SDS011;3343;42.896;23.912;2022-09-16T07:23:53;2.95;;;1.58;;
6614;SDS011;3343;42.896;23.912;2022-09-16T07:26:22;3.13;;;1.55;;
6614;SDS011;3343;42.896;23.912;2022-09-16T07:28:51;3.45;;;1.45;;
6614;SDS011;3343;42.896;23.912;2022-09-16T07:31:19;2.92;;;1.40;;
6614;SDS011;3343;42.896;23.912;2022-09-16T07:33:49;2.08;;;1.40;;
6614;SDS011;3343;42.896;23.912;2022-09-16T07:36:19;2.13;;;1.08;;
6614;SDS011;3343;42.896;23.912;2022-09-16T07:38:47;1.80;;;1.38;;
6614;SDS011;3343;42.896;23.912;2022-09-16T07:41:16;2.38;;;1.63;;
6614;SDS011;3343;42.896;23.912;2022-09-16T07:43:44;3.22;;;1.70;;
6614;SDS011;3343;42.896;23.912;2022-09-16T07:46:12;2.33;;;1.63;;
6614;SDS011;3343;42.896;23.912;2022-09-16T07:48:40;2.72;;;1.90;;
6614;SDS011;3343;42.896;23.912;2022-09-16T07:51:08;2.38;;;1.38;;
6614;SDS011;3343;42.896;23.912;2022-09-16T07:53:38;4.15;;;2.25;;
6614;SDS011;3343;42.896;23.912;2022-09-16T07:56:06;5.57;;;1.50;;
6614;SDS011;3343;42.896;23.912;2022-09-16T07:58:35;3.15;;;1.90;;
6614;SDS011;3343;42.896;23.912;2022-09-16T08:01:02;1.63;;;1.23;;
6614;SDS011;3343;42.896;23.912;2022-09-16T08:03:29;5.97;;;1.83;;
6614;SDS011;3343;42.896;23.912;2022-09-16T08:05:58;4.45;;;1.80;;
6614;SDS011;3343;42.896;23.912;2022-09-16T08:08:26;2.65;;;1.30;;
6614;SDS011;3343;42.896;23.912;2022-09-16T08:10:55;2.53;;;1.42;;
6614;SDS011;3343;42.896;23.912;2022-09-16T08:13:22;3.28;;;1.40;;
6614;SDS011;3343;42.896;23.912;2022-09-16T08:15:49;4.40;;;1.42;;
6614;SDS011;3343;42.896;23.912;2022-09-16T08:18:16;3.28;;;1.40;;
6614;SDS011;3343;42.896;23.912;2022-09-16T08:20:43;4.63;;;1.70;;
6614;SDS011;3343;42.896;23.912;2022-09-16T08:23:10;3.03;;;1.55;;
6614;SDS011;3343;42.896;23.912;2022-09-16T08:25:38;4.05;;;1.95;;
6614;SDS011;3343;42.896;23.912;2022-09-16T08:28:12;1.80;;;1.30;;
6614;SDS011;3343;42.896;23.912;2022-09-16T08:30:39;3.83;;;1.50;;
6614;SDS011;3343;42.896;23.912;2022-09-16T08:33:06;4.57;;;1.83;;
6614;SDS011;3343;42.896;23.912;2022-09-16T08:35:34;2.58;;;1.48;;
6614;SDS011;3343;42.896;23.912;2022-09-16T08:38:01;3.45;;;1.67;;
6614;SDS011;3343;42.896;23.912;2022-09-16T08:40:30;4.07;;;1.38;;
6614;SDS011;3343;42.896;23.912;2022-09-16T08:43:02;2.88;;;1.45;;
6614;SDS011;3343;42.896;23.912;2022-09-16T08:45:42;2.40;;;1.50;;
6614;SDS011;3343;42.896;23.912;2022-09-16T08:48:23;4.57;;;2.00;;
6614;SDS011;3343;42.896;23.912;2022-09-16T08:50:58;4.93;;;1.58;;
6614;SDS011;3343;42.896;23.912;2022-09-16T08:53:32;2.78;;;1.88;;
6614;SDS011;3343;42.896;23.912;2022-09-16T08:56:03;5.45;;;1.83;;
6614;SDS011;3343;42.896;23.912;2022-09-16T08:58:34;1.88;;;1.42;;
6614;SDS011;3343;42.896;23.912;2022-09-16T09:01:10;4.80;;;1.85;;
6614;SDS011;3343;42.896;23.912;2022-09-16T09:03:43;2.30;;;1.55;;
6614;SDS011;3343;42.896;23.912;2022-09-16T09:06:15;2.85;;;1.42;;
6614;SDS011;3343;42.896;23.912;2022-09-16T09:08:59;3.80;;;1.92;;
6614;SDS011;3343;42.896;23.912;2022-09-16T09:11:37;7.47;;;1.70;;
6614;SDS011;3343;42.896;23.912;2022-09-16T09:17:05;3.05;;;1.38;;
6614;SDS011;3343;42.896;23.912;2022-09-16T09:19:45;8.90;;;1.30;;
6614;SDS011;3343;42.896;23.912;2022-09-16T09:22:24;6.95;;;1.58;;
6614;SDS011;3343;42.896;23.912;2022-09-16T09:25:07;5.00;;;1.55;;
6614;SDS011;3343;42.896;23.912;2022-09-16T09:27:49;3.10;;;1.35;;
6614;SDS011;3343;42.896;23.912;2022-09-16T09:30:23;4.47;;;1.58;;
6614;SDS011;3343;42.896;23.912;2022-09-16T09:32:56;3.13;;;1.48;;
6614;SDS011;3343;42.896;23.912;2022-09-16T09:35:52;2.47;;;1.35;;
6614;SDS011;3343;42.896;23.912;2022-09-16T09:38:36;1.70;;;1.40;;
6614;SDS011;3343;42.896;23.912;2022-09-16T09:41:13;2.55;;;1.50;;
6614;SDS011;3343;42.896;23.912;2022-09-16T09:43:44;3.90;;;1.58;;
6614;SDS011;3343;42.896;23.912;2022-09-16T09:46:16;2.65;;;1.40;;
6614;SDS011;3343;42.896;23.912;2022-09-16T09:48:50;3.63;;;1.65;;
6614;SDS011;3343;42.896;23.912;2022-09-16T09:51:22;4.55;;;1.55;;
6614;SDS011;3343;42.896;23.912;2022-09-16T09:53:55;5.03;;;2.10;;
6614;SDS011;3343;42.896;23.912;2022-09-16T09:56:28;5.10;;;1.95;;
6614;SDS011;3343;42.896;23.912;2022-09-16T09:58:59;7.03;;;2.22;;
6614;SDS011;3343;42.896;23.912;2022-09-16T10:01:28;4.70;;;1.70;;
6614;SDS011;3343;42.896;23.912;2022-09-16T10:03:57;2.63;;;1.40;;
6614;SDS011;3343;42.896;23.912;2022-09-16T10:06:25;2.40;;;1.45;;
6614;SDS011;3343;42.896;23.912;2022-09-16T10:08:55;3.85;;;1.88;;
6614;SDS011;3343;42.896;23.912;2022-09-16T10:11:24;7.05;;;1.95;;
6614;SDS011;3343;42.896;23.912;2022-09-16T10:13:52;4.80;;;2.05;;
6614;SDS011;3343;42.896;23.912;2022-09-16T10:16:24;1.95;;;1.35;;
6614;SDS011;3343;42.896;23.912;2022-09-16T10:18:54;3.92;;;1.88;;
6614;SDS011;3343;42.896;23.912;2022-09-16T10:21:35;3.83;;;2.13;;
6614;SDS011;3343;42.896;23.912;2022-09-16T10:24:18;2.85;;;1.83;;
6614;SDS011;3343;42.896;23.912;2022-09-16T10:26:52;12.38;;;1.90;;
6614;SDS011;3343;42.896;23.912;2022-09-16T10:29:19;3.72;;;2.65;;
6614;SDS011;3343;42.896;23.912;2022-09-16T10:31:46;7.80;;;2.63;;
6614;SDS011;3343;42.896;23.912;2022-09-16T10:34:17;4.20;;;1.98;;
6614;SDS011;3343;42.896;23.912;2022-09-16T10:36:57;4.05;;;2.00;;
6614;SDS011;3343;42.896;23.912;2022-09-16T10:39:26;4.60;;;1.55;;
6614;SDS011;3343;42.896;23.912;2022-09-16T10:41:55;9.80;;;2.20;;
6614;SDS011;3343;42.896;23.912;2022-09-16T10:44:23;3.15;;;1.92;;
6614;SDS011;3343;42.896;23.912;2022-09-16T10:46:54;3.55;;;1.88;;
6614;SDS011;3343;42.896;23.912;2022-09-16T10:49:33;4.93;;;2.78;;
6614;SDS011;3343;42.896;23.912;2022-09-16T10:52:07;1.55;;;1.38;;
6614;SDS011;3343;42.896;23.912;2022-09-16T10:54:38;7.00;;;1.83;;
6614;SDS011;3343;42.896;23.912;2022-09-16T10:57:17;5.10;;;2.28;;
6614;SDS011;3343;42.896;23.912;2022-09-16T10:59:54;5.97;;;1.98;;
6614;SDS011;3343;42.896;23.912;2022-09-16T11:02:30;4.18;;;1.63;;
6614;SDS011;3343;42.896;23.912;2022-09-16T11:05:09;3.90;;;1.52;;
6614;SDS011;3343;42.896;23.912;2022-09-16T11:07:44;5.05;;;1.70;;
6614;SDS011;3343;42.896;23.912;2022-09-16T11:10:23;3.58;;;2.20;;
6614;SDS011;3343;42.896;23.912;2022-09-16T11:13:02;8.65;;;2.67;;
6614;SDS011;3343;42.896;23.912;2022-09-16T11:15:54;6.70;;;2.00;;
6614;SDS011;3343;42.896;23.912;2022-09-16T11:18:37;2.95;;;1.50;;
6614;SDS011;3343;42.896;23.912;2022-09-16T11:21:29;4.38;;;1.60;;
6614;SDS011;3343;42.896;23.912;2022-09-16T11:24:15;5.13;;;2.42;;
6614;SDS011;3343;42.896;23.912;2022-09-16T11:26:51;5.38;;;1.88;;
6614;SDS011;3343;42.896;23.912;2022-09-16T11:32:22;4.95;;;1.90;;
6614;SDS011;3343;42.896;23.912;2022-09-16T11:35:04;3.55;;;2.10;;
6614;SDS011;3343;42.896;23.912;2022-09-16T11:37:56;6.40;;;2.33;;
6614;SDS011;3343;42.896;23.912;2022-09-16T11:40:31;8.90;;;1.85;;
6614;SDS011;3343;42.896;23.912;2022-09-16T11:43:21;5.53;;;2.10;;
6614;SDS011;3343;42.896;23.912;2022-09-16T11:46:20;4.90;;;1.27;;
6614;SDS011;3343;42.896;23.912;2022-09-16T11:48:57;3.90;;;1.27;;
6614;SDS011;3343;42.896;23.912;2022-09-16T11:51:39;3.45;;;1.20;;
6614;SDS011;3343;42.896;23.912;2022-09-16T11:54:23;2.67;;;1.20;;
6614;SDS011;3343;42.896;23.912;2022-09-16T11:57:02;5.28;;;1.35;;
6614;SDS011;3343;42.896;23.912;2022-09-16T11:59:37;1.80;;;0.90;;
6614;SDS011;3343;42.896;23.912;2022-09-16T12:02:11;1.00;;;0.88;;
6614;SDS011;3343;42.896;23.912;2022-09-16T12:04:45;1.38;;;0.80;;
6614;SDS011;3343;42.896;23.912;2022-09-16T12:07:18;0.40;;;0.40;;
6614;SDS011;3343;42.896;23.912;2022-09-16T12:09:54;0.47;;;0.47;;
6614;SDS011;3343;42.896;23.912;2022-09-16T12:12:27;0.57;;;0.57;;
6614;SDS011;3343;42.896;23.912;2022-09-16T12:15:00;0.60;;;0.60;;
6614;SDS011;3343;42.896;23.912;2022-09-16T12:17:32;1.67;;;1.30;;
6614;SDS011;3343;42.896;23.912;2022-09-16T12:20:04;4.82;;;1.70;;
6614;SDS011;3343;42.896;23.912;2022-09-16T12:22:37;4.35;;;1.60;;
6614;SDS011;3343;42.896;23.912;2022-09-16T12:25:10;3.50;;;1.50;;
6614;SDS011;3343;42.896;23.912;2022-09-16T12:27:42;5.28;;;1.73;;
6614;SDS011;3343;42.896;23.912;2022-09-16T12:30:13;3.22;;;1.73;;
6614;SDS011;3343;42.896;23.912;2022-09-16T12:32:45;4.70;;;1.42;;
6614;SDS011;3343;42.896;23.912;2022-09-16T12:35:19;3.45;;;1.70;;
6614;SDS011;3343;42.896;23.912;2022-09-16T12:37:50;2.78;;;1.65;;
6614;SDS011;3343;42.896;23.912;2022-09-16T12:40:21;1.10;;;1.00;;
6614;SDS011;3343;42.896;23.912;2022-09-16T12:42:59;4.22;;;1.85;;
6614;SDS011;3343;42.896;23.912;2022-09-16T12:45:53;2.20;;;1.48;;
6614;SDS011;3343;42.896;23.912;2022-09-16T12:48:52;6.35;;;1.02;;
6614;SDS011;3343;42.896;23.912;2022-09-16T12:51:47;1.30;;;1.20;;
6614;SDS011;3343;42.896;23.912;2022-09-16T12:54:36;3.33;;;1.35;;
6614;SDS011;3343;42.896;23.912;2022-09-16T12:57:31;4.40;;;1.67;;
6614;SDS011;3343;42.896;23.912;2022-09-16T13:00:16;4.28;;;1.02;;
6614;SDS011;3343;42.896;23.912;2022-09-16T13:02:46;3.42;;;1.00;;
6614;SDS011;3343;42.896;23.912;2022-09-16T13:05:17;5.00;;;1.90;;
6614;SDS011;3343;42.896;23.912;2022-09-16T13:07:50;4.38;;;1.40;;
6614;SDS011;3343;42.896;23.912;2022-09-16T13:10:19;1.52;;;1.23;;
6614;SDS011;3343;42.896;23.912;2022-09-16T13:12:58;2.90;;;1.08;;
6614;SDS011;3343;42.896;23.912;2022-09-16T13:15:28;0.90;;;0.90;;
6614;SDS011;3343;42.896;23.912;2022-09-16T13:18:06;1.08;;;1.02;;
6614;SDS011;3343;42.896;23.912;2022-09-16T13:20:35;1.10;;;0.98;;
6614;SDS011;3343;42.896;23.912;2022-09-16T13:23:07;5.03;;;1.15;;
6614;SDS011;3343;42.896;23.912;2022-09-16T13:25:42;1.35;;;0.95;;
6614;SDS011;3343;42.896;23.912;2022-09-16T13:28:22;1.13;;;1.02;;
6614;SDS011;3343;42.896;23.912;2022-09-16T13:30:52;1.77;;;1.00;;
6614;SDS011;3343;42.896;23.912;2022-09-16T13:33:24;1.17;;;0.80;;
6614;SDS011;3343;42.896;23.912;2022-09-16T13:36:03;1.02;;;0.93;;
6614;SDS011;3343;42.896;23.912;2022-09-16T13:38:39;2.20;;;0.70;;
6614;SDS011;3343;42.896;23.912;2022-09-16T13:41:09;0.75;;;0.75;;
6614;SDS011;3343;42.896;23.912;2022-09-16T13:43:49;1.65;;;0.80;;
6614;SDS011;3343;42.896;23.912;2022-09-16T13:46:28;1.00;;;0.73;;
6614;SDS011;3343;42.896;23.912;2022-09-16T13:49:02;1.35;;;1.00;;
6614;SDS011;3343;42.896;23.912;2022-09-16T13:51:38;1.55;;;1.10;;
6614;SDS011;3343;42.896;23.912;2022-09-16T14:00:11;1.52;;;1.00;;
6614;SDS011;3343;42.896;23.912;2022-09-16T14:02:54;0.93;;;0.80;;
6614;SDS011;3343;42.896;23.912;2022-09-16T14:05:37;1.48;;;0.82;;
6614;SDS011;3343;42.896;23.912;2022-09-16T14:08:13;1.50;;;1.10;;
6614;SDS011;3343;42.896;23.912;2022-09-16T14:10:49;1.27;;;1.00;;
6614;SDS011;3343;42.896;23.912;2022-09-16T14:13:22;1.77;;;1.20;;
6614;SDS011;3343;42.896;23.912;2022-09-16T14:15:52;1.60;;;0.70;;
6614;SDS011;3343;42.896;23.912;2022-09-16T14:18:22;1.33;;;0.95;;
6614;SDS011;3343;42.896;23.912;2022-09-16T14:20:56;1.98;;;1.00;;
6614;SDS011;3343;42.896;23.912;2022-09-16T14:23:26;5.50;;;0.90;;
6614;SDS011;3343;42.896;23.912;2022-09-16T14:25:54;7.38;;;1.42;;
6614;SDS011;3343;42.896;23.912;2022-09-16T14:28:22;1.05;;;0.90;;
6614;SDS011;3343;42.896;23.912;2022-09-16T14:30:53;1.25;;;0.80;;
6614;SDS011;3343;42.896;23.912;2022-09-16T14:33:23;0.85;;;0.70;;
6614;SDS011;3343;42.896;23.912;2022-09-16T14:35:54;1.70;;;1.00;;
6614;SDS011;3343;42.896;23.912;2022-09-16T14:38:22;1.10;;;0.90;;
6614;SDS011;3343;42.896;23.912;2022-09-16T14:40:57;1.23;;;1.00;;
6614;SDS011;3343;42.896;23.912;2022-09-16T14:43:24;1.80;;;0.80;;
6614;SDS011;3343;42.896;23.912;2022-09-16T14:45:51;0.95;;;0.88;;
6614;SDS011;3343;42.896;23.912;2022-09-16T14:48:26;1.52;;;0.88;;
6614;SDS011;3343;42.896;23.912;2022-09-16T14:50:58;1.05;;;0.95;;
6614;SDS011;3343;42.896;23.912;2022-09-16T14:53:28;1.83;;;0.90;;
6614;SDS011;3343;42.896;23.912;2022-09-16T14:55:56;2.10;;;1.10;;
6614;SDS011;3343;42.896;23.912;2022-09-16T14:58:24;1.92;;;0.95;;
6614;SDS011;3343;42.896;23.912;2022-09-16T15:00:55;0.70;;;0.70;;
6614;SDS011;3343;42.896;23.912;2022-09-16T15:03:27;0.77;;;0.77;;
6614;SDS011;3343;42.896;23.912;2022-09-16T15:05:59;0.80;;;0.80;;
6614;SDS011;3343;42.896;23.912;2022-09-16T15:08:31;1.73;;;0.80;;
6614;SDS011;3343;42.896;23.912;2022-09-16T15:11:03;1.30;;;0.85;;
6614;SDS011;3343;42.896;23.912;2022-09-16T15:13:40;0.93;;;0.70;;
6614;SDS011;3343;42.896;23.912;2022-09-16T15:16:10;0.63;;;0.63;;
6614;SDS011;3343;42.896;23.912;2022-09-16T15:18:41;1.73;;;0.93;;
6614;SDS011;3343;42.896;23.912;2022-09-16T15:21:11;2.97;;;0.93;;
6614;SDS011;3343;42.896;23.912;2022-09-16T15:23:44;0.98;;;0.88;;
6614;SDS011;3343;42.896;23.912;2022-09-16T15:26:14;1.38;;;1.00;;
6614;SDS011;3343;42.896;23.912;2022-09-16T15:28:56;6.80;;;1.58;;
6614;SDS011;3343;42.896;23.912;2022-09-16T15:31:26;2.97;;;0.85;;
6614;SDS011;3343;42.896;23.912;2022-09-16T15:33:54;0.70;;;0.70;;
6614;SDS011;3343;42.896;23.912;2022-09-16T15:36:41;1.50;;;1.15;;
6614;SDS011;3343;42.896;23.912;2022-09-16T15:39:20;4.60;;;1.10;;
6614;SDS011;3343;42.896;23.912;2022-09-16T15:41:50;3.95;;;0.90;;
6614;SDS011;3343;42.896;23.912;2022-09-16T15:44:33;3.90;;;1.10;;